Terminal Aerodrome Forecast
Issued by NWS

Home | Current Version | Previous Version | Text Only | Print | Product List | Glossary On
Versions: 1 2 3 4 5 6 7 8 9 10 11 12 13
000
FTUS46 KLOX 182340
TAFBUR
TAF
KBUR 182340Z 1900/1924 16009KT P6SM SKC
     FM190100 13006KT P6SM SKC
     FM190700 VRB03KT P6SM SKC
     FM191200 VRB03KT 5SM BR SCT007
     FM191700 13005KT P6SM SCT250
     FM192100 17007KT P6SM BKN250=

USA.gov is the U.S. government's official web portal to all federal, state and local government web resources and services.